sensor_id;sensor_type;location;lat;lon;timestamp;pressure;altitude;pressure_sealevel;temperature;humidity
6532;BME280;3299;42.004;24.868;2023-03-03T00:00:10;98482.56;;;5.89;100.00
6532;BME280;3299;42.004;24.868;2023-03-03T00:02:35;98480.66;;;5.76;100.00
6532;BME280;3299;42.004;24.868;2023-03-03T00:05:01;98473.22;;;5.70;100.00
6532;BME280;3299;42.004;24.868;2023-03-03T00:07:26;98479.38;;;5.84;100.00
6532;BME280;3299;42.004;24.868;2023-03-03T00:09:52;98436.03;;;5.61;100.00
6532;BME280;3299;42.004;24.868;2023-03-03T00:12:26;98423.63;;;5.69;100.00
6532;BME280;3299;42.004;24.868;2023-03-03T00:14:52;98366.84;;;5.41;100.00
6532;BME280;3299;42.004;24.868;2023-03-03T00:17:23;98444.13;;;5.88;100.00
6532;BME280;3299;42.004;24.868;2023-03-03T00:19:49;98447.28;;;5.93;100.00
6532;BME280;3299;42.004;24.868;2023-03-03T00:24:47;98406.00;;;5.80;100.00
6532;BME280;3299;42.004;24.868;2023-03-03T00:27:34;98435.91;;;5.98;100.00
6532;BME280;3299;42.004;24.868;2023-03-03T00:30:02;98447.81;;;5.99;100.00
6532;BME280;3299;42.004;24.868;2023-03-03T00:35:26;98383.53;;;5.67;100.00
6532;BME280;3299;42.004;24.868;2023-03-03T00:37:59;98430.84;;;5.97;100.00
6532;BME280;3299;42.004;24.868;2023-03-03T00:40:36;98372.00;;;5.75;100.00
6532;BME280;3299;42.004;24.868;2023-03-03T00:43:33;98381.59;;;5.72;100.00
6532;BME280;3299;42.004;24.868;2023-03-03T00:45:57;98418.19;;;5.75;100.00
6532;BME280;3299;42.004;24.868;2023-03-03T00:51:01;98421.41;;;5.80;100.00
6532;BME280;3299;42.004;24.868;2023-03-03T00:53:30;98400.03;;;5.80;100.00
6532;BME280;3299;42.004;24.868;2023-03-03T00:55:56;98354.09;;;5.57;100.00
6532;BME280;3299;42.004;24.868;2023-03-03T00:58:23;98401.28;;;5.71;100.00
6532;BME280;3299;42.004;24.868;2023-03-03T01:00:51;98300.81;;;5.11;100.00
6532;BME280;3299;42.004;24.868;2023-03-03T01:03:19;98411.25;;;5.77;100.00
6532;BME280;3299;42.004;24.868;2023-03-03T01:05:46;98392.84;;;5.86;100.00
6532;BME280;3299;42.004;24.868;2023-03-03T01:08:12;98365.34;;;5.71;100.00
6532;BME280;3299;42.004;24.868;2023-03-03T01:10:50;98398.34;;;5.79;100.00
6532;BME280;3299;42.004;24.868;2023-03-03T01:13:17;98402.16;;;5.89;100.00
6532;BME280;3299;42.004;24.868;2023-03-03T01:15:43;98336.81;;;5.60;100.00
6532;BME280;3299;42.004;24.868;2023-03-03T01:18:10;98391.94;;;5.87;100.00
6532;BME280;3299;42.004;24.868;2023-03-03T01:20:36;98352.97;;;5.62;100.00
6532;BME280;3299;42.004;24.868;2023-03-03T01:23:02;98349.50;;;5.46;100.00
6532;BME280;3299;42.004;24.868;2023-03-03T01:25:28;98312.97;;;5.24;100.00
6532;BME280;3299;42.004;24.868;2023-03-03T01:27:53;98405.44;;;5.74;100.00
6532;BME280;3299;42.004;24.868;2023-03-03T01:30:19;98325.44;;;5.32;100.00
6532;BME280;3299;42.004;24.868;2023-03-03T01:32:44;98391.63;;;5.76;100.00
6532;BME280;3299;42.004;24.868;2023-03-03T01:35:10;98391.91;;;5.70;100.00
6532;BME280;3299;42.004;24.868;2023-03-03T01:37:35;98393.06;;;5.65;100.00
6532;BME280;3299;42.004;24.868;2023-03-03T01:40:03;98402.66;;;5.61;100.00
6532;BME280;3299;42.004;24.868;2023-03-03T01:42:29;98385.44;;;5.46;100.00
6532;BME280;3299;42.004;24.868;2023-03-03T01:47:44;98389.41;;;5.52;100.00
6532;BME280;3299;42.004;24.868;2023-03-03T01:50:14;98292.75;;;5.18;100.00
6532;BME280;3299;42.004;24.868;2023-03-03T01:52:45;98394.66;;;5.84;100.00
6532;BME280;3299;42.004;24.868;2023-03-03T01:55:21;98333.75;;;5.54;100.00
6532;BME280;3299;42.004;24.868;2023-03-03T01:57:53;98335.75;;;5.47;100.00
6532;BME280;3299;42.004;24.868;2023-03-03T02:00:20;98366.25;;;5.70;100.00
6532;BME280;3299;42.004;24.868;2023-03-03T02:02:46;98378.06;;;5.91;100.00
6532;BME280;3299;42.004;24.868;2023-03-03T02:05:13;98328.06;;;5.64;100.00
6532;BME280;3299;42.004;24.868;2023-03-03T02:07:40;98364.63;;;5.86;100.00
6532;BME280;3299;42.004;24.868;2023-03-03T02:10:10;98388.53;;;6.04;100.00
6532;BME280;3299;42.004;24.868;2023-03-03T02:12:42;98333.94;;;5.83;100.00
6532;BME280;3299;42.004;24.868;2023-03-03T02:15:34;98381.66;;;6.04;100.00
6532;BME280;3299;42.004;24.868;2023-03-03T02:18:09;98322.47;;;5.73;100.00
6532;BME280;3299;42.004;24.868;2023-03-03T02:23:42;98379.91;;;6.05;100.00
6532;BME280;3299;42.004;24.868;2023-03-03T02:26:14;98309.97;;;5.67;100.00
6532;BME280;3299;42.004;24.868;2023-03-03T02:28:41;98357.94;;;5.99;100.00
6532;BME280;3299;42.004;24.868;2023-03-03T02:31:13;98330.31;;;5.70;100.00
6532;BME280;3299;42.004;24.868;2023-03-03T02:33:45;98371.63;;;6.00;100.00
6532;BME280;3299;42.004;24.868;2023-03-03T02:36:16;98373.78;;;6.07;100.00
6532;BME280;3299;42.004;24.868;2023-03-03T02:38:47;98379.34;;;6.00;100.00
6532;BME280;3299;42.004;24.868;2023-03-03T02:46:39;98371.09;;;5.93;100.00
6532;BME280;3299;42.004;24.868;2023-03-03T02:49:07;98367.47;;;5.97;100.00
6532;BME280;3299;42.004;24.868;2023-03-03T02:51:33;98375.59;;;6.05;100.00
6532;BME280;3299;42.004;24.868;2023-03-03T02:54:00;98317.25;;;5.75;100.00
6532;BME280;3299;42.004;24.868;2023-03-03T02:56:28;98372.78;;;6.10;100.00
6532;BME280;3299;42.004;24.868;2023-03-03T02:58:54;98370.41;;;6.07;100.00
6532;BME280;3299;42.004;24.868;2023-03-03T03:01:20;98279.00;;;5.53;100.00
6532;BME280;3299;42.004;24.868;2023-03-03T03:03:45;98323.84;;;5.63;100.00
6532;BME280;3299;42.004;24.868;2023-03-03T03:06:11;98310.34;;;5.60;100.00
6532;BME280;3299;42.004;24.868;2023-03-03T03:08:37;98315.28;;;5.63;100.00
6532;BME280;3299;42.004;24.868;2023-03-03T03:11:03;98336.44;;;5.68;100.00
6532;BME280;3299;42.004;24.868;2023-03-03T03:13:30;98293.06;;;5.46;100.00
6532;BME280;3299;42.004;24.868;2023-03-03T03:15:56;98328.38;;;5.58;100.00
6532;BME280;3299;42.004;24.868;2023-03-03T03:18:21;98303.94;;;5.34;100.00
6532;BME280;3299;42.004;24.868;2023-03-03T03:20:47;98307.47;;;5.49;100.00
6532;BME280;3299;42.004;24.868;2023-03-03T03:23:12;98310.53;;;5.55;100.00
6532;BME280;3299;42.004;24.868;2023-03-03T03:25:38;98288.97;;;5.59;100.00
6532;BME280;3299;42.004;24.868;2023-03-03T03:28:11;98297.13;;;5.67;100.00
6532;BME280;3299;42.004;24.868;2023-03-03T03:30:36;98287.75;;;5.66;100.00
6532;BME280;3299;42.004;24.868;2023-03-03T03:33:02;98316.56;;;5.88;100.00
6532;BME280;3299;42.004;24.868;2023-03-03T03:35:27;98307.03;;;5.90;100.00
6532;BME280;3299;42.004;24.868;2023-03-03T03:37:53;98347.47;;;6.19;100.00
6532;BME280;3299;42.004;24.868;2023-03-03T03:40:18;98301.34;;;5.85;100.00
6532;BME280;3299;42.004;24.868;2023-03-03T03:42:43;98328.50;;;5.72;100.00
6532;BME280;3299;42.004;24.868;2023-03-03T03:45:10;98256.72;;;5.21;100.00
6532;BME280;3299;42.004;24.868;2023-03-03T03:47:40;98297.16;;;5.50;100.00
6532;BME280;3299;42.004;24.868;2023-03-03T03:50:06;98299.16;;;5.44;100.00
6532;BME280;3299;42.004;24.868;2023-03-03T03:52:31;98353.97;;;5.77;100.00
6532;BME280;3299;42.004;24.868;2023-03-03T03:54:56;98292.44;;;5.41;100.00
6532;BME280;3299;42.004;24.868;2023-03-03T03:57:22;98279.50;;;5.44;100.00
6532;BME280;3299;42.004;24.868;2023-03-03T03:59:49;98350.41;;;5.79;100.00
6532;BME280;3299;42.004;24.868;2023-03-03T04:02:14;98261.84;;;5.38;100.00
6532;BME280;3299;42.004;24.868;2023-03-03T04:04:40;98346.56;;;5.88;100.00
6532;BME280;3299;42.004;24.868;2023-03-03T04:07:05;98350.69;;;5.90;100.00
6532;BME280;3299;42.004;24.868;2023-03-03T04:09:30;98360.69;;;5.96;100.00
6532;BME280;3299;42.004;24.868;2023-03-03T04:11:56;98310.69;;;5.69;100.00
6532;BME280;3299;42.004;24.868;2023-03-03T04:14:21;98357.56;;;6.07;100.00
6532;BME280;3299;42.004;24.868;2023-03-03T04:16:47;98333.50;;;5.92;100.00
6532;BME280;3299;42.004;24.868;2023-03-03T04:19:12;98285.56;;;5.76;100.00
6532;BME280;3299;42.004;24.868;2023-03-03T04:21:37;98287.75;;;5.83;100.00
6532;BME280;3299;42.004;24.868;2023-03-03T04:24:03;98299.53;;;5.87;100.00
6532;BME280;3299;42.004;24.868;2023-03-03T04:26:29;98300.72;;;5.97;100.00
6532;BME280;3299;42.004;24.868;2023-03-03T04:28:55;98296.25;;;6.01;100.00
6532;BME280;3299;42.004;24.868;2023-03-03T04:31:21;98344.47;;;6.11;100.00
6532;BME280;3299;42.004;24.868;2023-03-03T04:33:50;98296.88;;;5.89;100.00
6532;BME280;3299;42.004;24.868;2023-03-03T04:36:15;98333.78;;;6.03;100.00
6532;BME280;3299;42.004;24.868;2023-03-03T04:38:41;98282.91;;;5.60;100.00
6532;BME280;3299;42.004;24.868;2023-03-03T04:41:06;98299.84;;;5.64;100.00
6532;BME280;3299;42.004;24.868;2023-03-03T04:43:31;98303.13;;;5.66;100.00
6532;BME280;3299;42.004;24.868;2023-03-03T04:45:57;98341.03;;;5.95;100.00
6532;BME280;3299;42.004;24.868;2023-03-03T04:48:22;98345.56;;;5.90;100.00
6532;BME280;3299;42.004;24.868;2023-03-03T04:50:48;98290.47;;;5.63;100.00
6532;BME280;3299;42.004;24.868;2023-03-03T04:53:13;98332.75;;;5.73;100.00
6532;BME280;3299;42.004;24.868;2023-03-03T04:55:38;98337.88;;;5.90;100.00
6532;BME280;3299;42.004;24.868;2023-03-03T04:58:04;98291.16;;;5.67;100.00
6532;BME280;3299;42.004;24.868;2023-03-03T05:00:30;98277.97;;;5.57;100.00
6532;BME280;3299;42.004;24.868;2023-03-03T05:02:55;98338.88;;;5.88;100.00
6532;BME280;3299;42.004;24.868;2023-03-03T05:05:23;98297.34;;;5.63;100.00
6532;BME280;3299;42.004;24.868;2023-03-03T05:07:48;98312.78;;;5.78;100.00
6532;BME280;3299;42.004;24.868;2023-03-03T05:10:17;98341.47;;;6.03;100.00
6532;BME280;3299;42.004;24.868;2023-03-03T05:12:42;98307.16;;;5.89;100.00
6532;BME280;3299;42.004;24.868;2023-03-03T05:15:09;98333.75;;;6.20;100.00
6532;BME280;3299;42.004;24.868;2023-03-03T05:17:35;98353.31;;;6.23;100.00
6532;BME280;3299;42.004;24.868;2023-03-03T05:20:00;98336.19;;;6.22;100.00
6532;BME280;3299;42.004;24.868;2023-03-03T05:22:25;98354.97;;;6.24;100.00
6532;BME280;3299;42.004;24.868;2023-03-03T05:24:51;98305.31;;;5.91;100.00
6532;BME280;3299;42.004;24.868;2023-03-03T05:27:18;98359.56;;;6.17;100.00
6532;BME280;3299;42.004;24.868;2023-03-03T05:29:43;98310.66;;;6.03;100.00
6532;BME280;3299;42.004;24.868;2023-03-03T05:32:09;98357.28;;;6.44;100.00
6532;BME280;3299;42.004;24.868;2023-03-03T05:34:34;98372.13;;;6.54;100.00
6532;BME280;3299;42.004;24.868;2023-03-03T05:36:59;98350.75;;;6.38;100.00
6532;BME280;3299;42.004;24.868;2023-03-03T05:39:25;98325.78;;;6.25;100.00
6532;BME280;3299;42.004;24.868;2023-03-03T05:41:50;98348.78;;;6.43;100.00
6532;BME280;3299;42.004;24.868;2023-03-03T05:44:16;98339.97;;;6.47;100.00
6532;BME280;3299;42.004;24.868;2023-03-03T05:46:41;98303.78;;;6.19;100.00
6532;BME280;3299;42.004;24.868;2023-03-03T05:49:07;98366.13;;;6.55;100.00
6532;BME280;3299;42.004;24.868;2023-03-03T05:51:32;98360.38;;;6.50;100.00
6532;BME280;3299;42.004;24.868;2023-03-03T05:53:58;98308.84;;;6.21;100.00
6532;BME280;3299;42.004;24.868;2023-03-03T05:56:23;98350.09;;;6.50;100.00
6532;BME280;3299;42.004;24.868;2023-03-03T05:58:49;98300.34;;;6.20;100.00
6532;BME280;3299;42.004;24.868;2023-03-03T06:01:14;98366.44;;;6.65;100.00
6532;BME280;3299;42.004;24.868;2023-03-03T06:03:40;98337.25;;;6.50;100.00
6532;BME280;3299;42.004;24.868;2023-03-03T06:06:07;98310.72;;;6.50;100.00
6532;BME280;3299;42.004;24.868;2023-03-03T06:08:33;98325.38;;;6.63;100.00
6532;BME280;3299;42.004;24.868;2023-03-03T06:10:59;98368.44;;;6.91;100.00
6532;BME280;3299;42.004;24.868;2023-03-03T06:13:25;98313.53;;;6.45;100.00
6532;BME280;3299;42.004;24.868;2023-03-03T06:15:50;98342.81;;;6.58;100.00
6532;BME280;3299;42.004;24.868;2023-03-03T06:18:15;98367.25;;;6.65;100.00
6532;BME280;3299;42.004;24.868;2023-03-03T06:20:41;98373.56;;;6.75;100.00
6532;BME280;3299;42.004;24.868;2023-03-03T06:23:06;98366.53;;;6.79;100.00
6532;BME280;3299;42.004;24.868;2023-03-03T06:25:32;98318.81;;;6.42;100.00
6532;BME280;3299;42.004;24.868;2023-03-03T06:28:00;98343.66;;;6.59;100.00
6532;BME280;3299;42.004;24.868;2023-03-03T06:30:25;98287.06;;;6.12;100.00
6532;BME280;3299;42.004;24.868;2023-03-03T06:32:52;98336.91;;;6.41;100.00
6532;BME280;3299;42.004;24.868;2023-03-03T06:35:18;98377.53;;;6.65;100.00
6532;BME280;3299;42.004;24.868;2023-03-03T06:37:43;98358.22;;;6.58;100.00
6532;BME280;3299;42.004;24.868;2023-03-03T06:40:09;98386.69;;;6.86;100.00
6532;BME280;3299;42.004;24.868;2023-03-03T06:42:35;98335.00;;;6.60;100.00
6532;BME280;3299;42.004;24.868;2023-03-03T06:45:00;98378.97;;;6.86;100.00
6532;BME280;3299;42.004;24.868;2023-03-03T06:47:26;98297.28;;;6.45;100.00
6532;BME280;3299;42.004;24.868;2023-03-03T06:49:51;98386.34;;;7.08;100.00
6532;BME280;3299;42.004;24.868;2023-03-03T06:52:20;98373.31;;;7.11;100.00
6532;BME280;3299;42.004;24.868;2023-03-03T06:54:47;98341.41;;;6.68;100.00
6532;BME280;3299;42.004;24.868;2023-03-03T06:57:16;98395.00;;;6.91;100.00
6532;BME280;3299;42.004;24.868;2023-03-03T06:59:46;98381.88;;;6.80;100.00
6532;BME280;3299;42.004;24.868;2023-03-03T07:02:15;98388.41;;;6.86;100.00
6532;BME280;3299;42.004;24.868;2023-03-03T07:04:41;98332.38;;;6.61;100.00
6532;BME280;3299;42.004;24.868;2023-03-03T07:07:21;98391.34;;;6.95;100.00
6532;BME280;3299;42.004;24.868;2023-03-03T07:09:55;98375.06;;;6.95;100.00
6532;BME280;3299;42.004;24.868;2023-03-03T07:12:29;98391.91;;;7.00;100.00
6532;BME280;3299;42.004;24.868;2023-03-03T07:15:12;98340.00;;;6.78;100.00
6532;BME280;3299;42.004;24.868;2023-03-03T07:17:43;98382.38;;;7.02;100.00
6532;BME280;3299;42.004;24.868;2023-03-03T07:20:42;98400.44;;;7.16;100.00
6532;BME280;3299;42.004;24.868;2023-03-03T07:23:20;98400.78;;;7.10;100.00
6532;BME280;3299;42.004;24.868;2023-03-03T07:25:47;98344.69;;;6.86;100.00
6532;BME280;3299;42.004;24.868;2023-03-03T07:28:28;98355.00;;;6.86;100.00
6532;BME280;3299;42.004;24.868;2023-03-03T07:30:57;98387.19;;;6.93;100.00
6532;BME280;3299;42.004;24.868;2023-03-03T07:33:29;98392.66;;;7.02;100.00
6532;BME280;3299;42.004;24.868;2023-03-03T07:35:58;98381.94;;;6.94;100.00
6532;BME280;3299;42.004;24.868;2023-03-03T07:41:00;98384.63;;;6.93;100.00
6532;BME280;3299;42.004;24.868;2023-03-03T07:43:41;98396.50;;;6.95;100.00
6532;BME280;3299;42.004;24.868;2023-03-03T07:48:37;98388.09;;;6.92;100.00
6532;BME280;3299;42.004;24.868;2023-03-03T07:51:18;98400.47;;;6.85;100.00
6532;BME280;3299;42.004;24.868;2023-03-03T07:53:46;98369.00;;;6.49;100.00
6532;BME280;3299;42.004;24.868;2023-03-03T07:56:33;98318.16;;;6.23;100.00
6532;BME280;3299;42.004;24.868;2023-03-03T07:59:02;98385.84;;;6.70;100.00
6532;BME280;3299;42.004;24.868;2023-03-03T08:06:49;98380.03;;;7.13;100.00
6532;BME280;3299;42.004;24.868;2023-03-03T08:09:25;98371.66;;;6.94;100.00
6532;BME280;3299;42.004;24.868;2023-03-03T08:12:01;98368.59;;;7.03;100.00
6532;BME280;3299;42.004;24.868;2023-03-03T08:14:37;98314.44;;;6.75;100.00
6532;BME280;3299;42.004;24.868;2023-03-03T08:17:26;98361.63;;;7.05;100.00
6532;BME280;3299;42.004;24.868;2023-03-03T08:19:55;98365.09;;;7.04;100.00
6532;BME280;3299;42.004;24.868;2023-03-03T08:22:26;98361.38;;;7.10;100.00
6532;BME280;3299;42.004;24.868;2023-03-03T08:24:54;98346.03;;;7.08;100.00
6532;BME280;3299;42.004;24.868;2023-03-03T08:27:22;98289.13;;;6.83;100.00
6532;BME280;3299;42.004;24.868;2023-03-03T08:29:47;98299.75;;;6.93;100.00
6532;BME280;3299;42.004;24.868;2023-03-03T08:32:14;98311.59;;;7.11;100.00
6532;BME280;3299;42.004;24.868;2023-03-03T08:34:39;98343.72;;;7.04;100.00
6532;BME280;3299;42.004;24.868;2023-03-03T08:37:05;98337.38;;;7.09;100.00
6532;BME280;3299;42.004;24.868;2023-03-03T08:39:30;98316.28;;;7.18;100.00
6532;BME280;3299;42.004;24.868;2023-03-03T08:41:56;98332.34;;;7.37;100.00
6532;BME280;3299;42.004;24.868;2023-03-03T08:44:21;98341.47;;;7.43;100.00
6532;BME280;3299;42.004;24.868;2023-03-03T08:46:47;98345.78;;;7.42;100.00
6532;BME280;3299;42.004;24.868;2023-03-03T08:49:12;98342.47;;;7.11;100.00
6532;BME280;3299;42.004;24.868;2023-03-03T08:51:38;98296.69;;;6.86;100.00
6532;BME280;3299;42.004;24.868;2023-03-03T08:54:03;98331.94;;;7.00;100.00
6532;BME280;3299;42.004;24.868;2023-03-03T08:56:29;98290.31;;;6.78;100.00
6532;BME280;3299;42.004;24.868;2023-03-03T08:58:54;98354.47;;;7.10;100.00
6532;BME280;3299;42.004;24.868;2023-03-03T09:01:19;98342.78;;;7.05;100.00
6532;BME280;3299;42.004;24.868;2023-03-03T09:03:45;98341.88;;;7.06;100.00
6532;BME280;3299;42.004;24.868;2023-03-03T09:06:10;98296.53;;;6.74;100.00
6532;BME280;3299;42.004;24.868;2023-03-03T09:08:36;98257.06;;;6.44;100.00
6532;BME280;3299;42.004;24.868;2023-03-03T09:11:08;98337.22;;;6.97;100.00
6532;BME280;3299;42.004;24.868;2023-03-03T09:13:34;98347.03;;;7.06;100.00
6532;BME280;3299;42.004;24.868;2023-03-03T09:15:59;98331.09;;;6.84;100.00
6532;BME280;3299;42.004;24.868;2023-03-03T09:18:30;98337.59;;;6.60;100.00
6532;BME280;3299;42.004;24.868;2023-03-03T09:20:59;98339.16;;;6.62;100.00
6532;BME280;3299;42.004;24.868;2023-03-03T09:26:24;98336.50;;;6.79;100.00
6532;BME280;3299;42.004;24.868;2023-03-03T09:29:25;98320.19;;;6.65;100.00
6532;BME280;3299;42.004;24.868;2023-03-03T09:31:57;98273.91;;;6.49;100.00
6532;BME280;3299;42.004;24.868;2023-03-03T09:34:39;98292.47;;;6.70;100.00
6532;BME280;3299;42.004;24.868;2023-03-03T09:37:28;98271.09;;;6.54;100.00
6532;BME280;3299;42.004;24.868;2023-03-03T09:39:56;98306.91;;;6.72;100.00
6532;BME280;3299;42.004;24.868;2023-03-03T10:06:37;98326.44;;;7.06;100.00
6532;BME280;3299;42.004;24.868;2023-03-03T10:17:51;98266.03;;;6.52;100.00
6532;BME280;3299;42.004;24.868;2023-03-03T10:31:01;98300.47;;;7.40;100.00
6532;BME280;3299;42.004;24.868;2023-03-03T10:38:54;98301.47;;;7.81;100.00
6532;BME280;3299;42.004;24.868;2023-03-03T10:49:59;98273.78;;;8.26;100.00
6532;BME280;3299;42.004;24.868;2023-03-03T10:57:57;98280.53;;;8.55;100.00
6532;BME280;3299;42.004;24.868;2023-03-03T11:00:31;98171.84;;;7.80;100.00
6532;BME280;3299;42.004;24.868;2023-03-03T11:10:01;98202.44;;;8.13;100.00
6532;BME280;3299;42.004;24.868;2023-03-03T11:15:08;98253.31;;;8.37;100.00
6532;BME280;3299;42.004;24.868;2023-03-03T11:28:54;98239.84;;;8.46;100.00
6532;BME280;3299;42.004;24.868;2023-03-03T11:37:08;98189.75;;;8.50;100.00
6532;BME280;3299;42.004;24.868;2023-03-03T11:39:37;98241.03;;;8.81;100.00
6532;BME280;3299;42.004;24.868;2023-03-03T11:42:27;98219.56;;;8.81;100.00
6532;BME280;3299;42.004;24.868;2023-03-03T11:45:18;98233.63;;;8.89;100.00
6532;BME280;3299;42.004;24.868;2023-03-03T11:47:51;98231.38;;;8.97;100.00
6532;BME280;3299;42.004;24.868;2023-03-03T11:50:34;98223.78;;;8.82;100.00
6532;BME280;3299;42.004;24.868;2023-03-03T11:53:14;98228.47;;;8.89;100.00
6532;BME280;3299;42.004;24.868;2023-03-03T11:55:51;98208.94;;;8.85;100.00
6532;BME280;3299;42.004;24.868;2023-03-03T11:58:24;98219.41;;;8.96;100.00
6532;BME280;3299;42.004;24.868;2023-03-03T12:00:57;98221.03;;;8.97;100.00
6532;BME280;3299;42.004;24.868;2023-03-03T12:03:30;98215.25;;;8.94;100.00
6532;BME280;3299;42.004;24.868;2023-03-03T12:11:50;98172.28;;;8.68;100.00
6532;BME280;3299;42.004;24.868;2023-03-03T12:22:33;98159.66;;;8.63;100.00
6532;BME280;3299;42.004;24.868;2023-03-03T12:36:04;98210.13;;;9.19;100.00
6532;BME280;3299;42.004;24.868;2023-03-03T12:41:55;98210.66;;;9.24;100.00
6532;BME280;3299;42.004;24.868;2023-03-03T12:44:55;98211.28;;;9.27;100.00
6532;BME280;3299;42.004;24.868;2023-03-03T12:47:26;98206.78;;;9.31;100.00
6532;BME280;3299;42.004;24.868;2023-03-03T13:00:46;98201.09;;;9.51;100.00
6532;BME280;3299;42.004;24.868;2023-03-03T13:06:06;98200.25;;;9.50;100.00
6532;BME280;3299;42.004;24.868;2023-03-03T13:19:57;98184.84;;;9.24;100.00
6532;BME280;3299;42.004;24.868;2023-03-03T13:22:47;98193.97;;;9.29;100.00
6532;BME280;3299;42.004;24.868;2023-03-03T13:27:51;98139.94;;;9.01;100.00
6532;BME280;3299;42.004;24.868;2023-03-03T13:30:26;98135.66;;;8.75;100.00
6532;BME280;3299;42.004;24.868;2023-03-03T13:33:03;98183.31;;;9.09;100.00
6532;BME280;3299;42.004;24.868;2023-03-03T13:35:42;98159.13;;;8.97;100.00
6532;BME280;3299;42.004;24.868;2023-03-03T13:38:12;98147.06;;;8.98;100.00
6532;BME280;3299;42.004;24.868;2023-03-03T13:43:17;98193.44;;;9.24;100.00
6532;BME280;3299;42.004;24.868;2023-03-03T13:48:58;98188.06;;;9.15;100.00
6532;BME280;3299;42.004;24.868;2023-03-03T13:51:42;98194.56;;;9.20;100.00
6532;BME280;3299;42.004;24.868;2023-03-03T14:06:57;98177.19;;;8.97;100.00
6532;BME280;3299;42.004;24.868;2023-03-03T14:14:58;98135.22;;;8.56;100.00
6532;BME280;3299;42.004;24.868;2023-03-03T14:20:31;98133.81;;;8.77;100.00
6532;BME280;3299;42.004;24.868;2023-03-03T14:23:01;98170.06;;;9.01;100.00
6532;BME280;3299;42.004;24.868;2023-03-03T14:28:21;98125.03;;;8.67;100.00
6532;BME280;3299;42.004;24.868;2023-03-03T14:30:47;98174.19;;;9.03;100.00
6532;BME280;3299;42.004;24.868;2023-03-03T14:35:43;98135.88;;;8.72;100.00
6532;BME280;3299;42.004;24.868;2023-03-03T14:40:41;98078.75;;;8.27;100.00
6532;BME280;3299;42.004;24.868;2023-03-03T14:45:47;98109.09;;;8.61;100.00
6532;BME280;3299;42.004;24.868;2023-03-03T14:50:40;98152.72;;;8.90;100.00
6532;BME280;3299;42.004;24.868;2023-03-03T14:53:20;98149.41;;;8.88;100.00
6532;BME280;3299;42.004;24.868;2023-03-03T14:55:48;98151.06;;;8.89;100.00
6532;BME280;3299;42.004;24.868;2023-03-03T15:01:34;98170.69;;;9.04;100.00
6532;BME280;3299;42.004;24.868;2023-03-03T15:06:42;98170.25;;;8.73;100.00
6532;BME280;3299;42.004;24.868;2023-03-03T15:09:38;98142.94;;;8.56;100.00
6532;BME280;3299;42.004;24.868;2023-03-03T15:12:34;98146.84;;;8.49;100.00
6532;BME280;3299;42.004;24.868;2023-03-03T15:34:02;98162.47;;;8.34;100.00
6532;BME280;3299;42.004;24.868;2023-03-03T15:36:38;98164.03;;;8.36;100.00
6532;BME280;3299;42.004;24.868;2023-03-03T15:39:24;98165.53;;;8.26;100.00
6532;BME280;3299;42.004;24.868;2023-03-03T15:42:32;98164.81;;;8.24;100.00
6532;BME280;3299;42.004;24.868;2023-03-03T15:53:29;98172.72;;;8.21;100.00
6532;BME280;3299;42.004;24.868;2023-03-03T16:04:33;98097.38;;;7.63;100.00
6532;BME280;3299;42.004;24.868;2023-03-03T16:07:43;98194.06;;;8.09;100.00
6532;BME280;3299;42.004;24.868;2023-03-03T16:17:59;98203.47;;;7.82;100.00
6532;BME280;3299;42.004;24.868;2023-03-03T16:23:30;98216.72;;;7.90;100.00
6532;BME280;3299;42.004;24.868;2023-03-03T16:31:20;98168.47;;;7.80;100.00
6532;BME280;3299;42.004;24.868;2023-03-03T16:36:27;98175.69;;;7.87;100.00
6532;BME280;3299;42.004;24.868;2023-03-03T16:46:46;98181.22;;;7.81;100.00
6532;BME280;3299;42.004;24.868;2023-03-03T16:51:49;98231.81;;;7.82;100.00
6532;BME280;3299;42.004;24.868;2023-03-03T16:54:30;98232.66;;;7.83;100.00
6532;BME280;3299;42.004;24.868;2023-03-03T16:59:49;98240.53;;;7.66;100.00
6532;BME280;3299;42.004;24.868;2023-03-03T17:14:11;98241.41;;;7.94;100.00
6532;BME280;3299;42.004;24.868;2023-03-03T17:25:21;98251.59;;;7.68;100.00
6532;BME280;3299;42.004;24.868;2023-03-03T17:27:55;98253.78;;;7.46;100.00
6532;BME280;3299;42.004;24.868;2023-03-03T17:36:06;98236.50;;;7.18;100.00
6532;BME280;3299;42.004;24.868;2023-03-03T17:41:27;98178.22;;;6.89;100.00
6532;BME280;3299;42.004;24.868;2023-03-03T17:46:51;98202.13;;;7.05;100.00
6532;BME280;3299;42.004;24.868;2023-03-03T17:52:58;98288.47;;;7.68;100.00
6532;BME280;3299;42.004;24.868;2023-03-03T17:58:05;98278.16;;;7.54;100.00
6532;BME280;3299;42.004;24.868;2023-03-03T18:09:39;98277.25;;;7.69;100.00
6532;BME280;3299;42.004;24.868;2023-03-03T18:12:29;98288.75;;;7.64;100.00
6532;BME280;3299;42.004;24.868;2023-03-03T18:15:52;98282.19;;;7.58;100.00
6532;BME280;3299;42.004;24.868;2023-03-03T18:18:23;98294.41;;;7.55;100.00
6532;BME280;3299;42.004;24.868;2023-03-03T18:21:09;98240.56;;;7.22;100.00
6532;BME280;3299;42.004;24.868;2023-03-03T18:23:45;98291.03;;;7.25;100.00
6532;BME280;3299;42.004;24.868;2023-03-03T18:26:37;98290.34;;;7.07;100.00
6532;BME280;3299;42.004;24.868;2023-03-03T18:34:38;98292.59;;;6.98;100.00
6532;BME280;3299;42.004;24.868;2023-03-03T18:42:46;98238.38;;;6.71;100.00
6532;BME280;3299;42.004;24.868;2023-03-03T18:48:09;98312.09;;;7.02;100.00
6532;BME280;3299;42.004;24.868;2023-03-03T18:50:38;98300.72;;;7.06;100.00
6532;BME280;3299;42.004;24.868;2023-03-03T18:53:15;98309.31;;;7.20;100.00
6532;BME280;3299;42.004;24.868;2023-03-03T18:55:52;98257.19;;;6.87;100.00
6532;BME280;3299;42.004;24.868;2023-03-03T19:04:14;98315.31;;;7.05;100.00
6532;BME280;3299;42.004;24.868;2023-03-03T19:12:08;98302.59;;;6.57;100.00
6532;BME280;3299;42.004;24.868;2023-03-03T19:14:38;98306.22;;;6.69;100.00
6532;BME280;3299;42.004;24.868;2023-03-03T19:20:15;98310.38;;;6.87;100.00
6532;BME280;3299;42.004;24.868;2023-03-03T19:22:48;98306.06;;;6.87;100.00
6532;BME280;3299;42.004;24.868;2023-03-03T19:25:20;98299.09;;;6.89;100.00
6532;BME280;3299;42.004;24.868;2023-03-03T19:41:24;98322.06;;;6.92;100.00
6532;BME280;3299;42.004;24.868;2023-03-03T19:52:36;98338.81;;;6.84;100.00
6532;BME280;3299;42.004;24.868;2023-03-03T19:58:19;98331.28;;;6.81;100.00